<?xml version='1.0' encoding='UTF-8'?>
<gpx xmlns="http://www.topografix.com/GPX/1/1" creator="www.balnam.be" version="1.1" xmlns:xsi="http://www.w3.org/2001/XMLSchema-instance" xsi:schemaLocation="http://www.topografix.com/GPX/1/1 http://www.topografix.com/GPX/1/1/gpx.xsd">
<trk>
<name>bolot31</name>
<cmt>r</cmt>
<desc>Ottignies Chemin n°31 Rue du Viaduc / Rue de la Fontaine</desc>
<link href="https://chemins.be/ottignies/chemin/31"/><trkseg>
<trkpt lat="50.669347" lon="4.584292"><time>2026-05-03T02:00:23Z</time></trkpt>
<trkpt lat="50.669162" lon="4.583970"><time>2026-05-03T02:10:23Z</time></trkpt>
<trkpt lat="50.669139" lon="4.583583"><time>2026-05-03T02:20:23Z</time></trkpt>
<trkpt lat="50.669038" lon="4.583192"><time>2026-05-03T02:30:23Z</time></trkpt>
</trkseg></trk>
<trk>
<name>bolot31</name>
<cmt>v</cmt>
<desc>Ottignies Chemin n°31 Rue du Viaduc / Rue de la Fontaine</desc>
<link href="https://chemins.be/ottignies/chemin/31"/><trkseg>
<trkpt lat="50.669038" lon="4.583192"><time>2026-05-03T02:30:23Z</time></trkpt>
<trkpt lat="50.668968" lon="4.582433"><time>2026-05-03T02:40:23Z</time></trkpt>
<trkpt lat="50.668961" lon="4.582309"><time>2026-05-03T02:50:23Z</time></trkpt>
</trkseg></trk>
<trk>
<name>bolot31</name>
<cmt>r</cmt>
<desc>Ottignies Chemin n°31 Rue du Viaduc / Rue de la Fontaine</desc>
<link href="https://chemins.be/ottignies/chemin/31"/><trkseg>
<trkpt lat="50.668961" lon="4.582309"><time>2026-05-03T02:50:23Z</time></trkpt>
<trkpt lat="50.668973" lon="4.580683"><time>2026-05-03T03:00:23Z</time></trkpt>
<trkpt lat="50.668867" lon="4.579791"><time>2026-05-03T03:10:23Z</time></trkpt>
<trkpt lat="50.668768" lon="4.579692"><time>2026-05-03T03:20:23Z</time></trkpt>
<trkpt lat="50.668403" lon="4.579408"><time>2026-05-03T03:30:23Z</time></trkpt>
</trkseg></trk>
<trk>
<name>bolot31</name>
<cmt>v</cmt>
<desc>Ottignies Chemin n°31 Rue du Viaduc / Rue de la Fontaine</desc>
<link href="https://chemins.be/ottignies/chemin/31"/><trkseg>
<trkpt lat="50.668403" lon="4.579408"><time>2026-05-03T03:30:23Z</time></trkpt>
<trkpt lat="50.668263" lon="4.579276"><time>2026-05-03T03:40:23Z</time></trkpt>
<trkpt lat="50.667787" lon="4.578917"><time>2026-05-03T03:50:23Z</time></trkpt>
</trkseg></trk>
<trk>
<name>bolot31</name>
<cmt>r</cmt>
<desc>Ottignies Chemin n°31 Rue du Viaduc / Rue de la Fontaine</desc>
<link href="https://chemins.be/ottignies/chemin/31"/><trkseg>
<trkpt lat="50.667787" lon="4.578917"><time>2026-05-03T03:50:23Z</time></trkpt>
<trkpt lat="50.667538" lon="4.578912"><time>2026-05-03T04:00:23Z</time></trkpt>
<trkpt lat="50.667188" lon="4.579094"><time>2026-05-03T04:10:23Z</time></trkpt>
<trkpt lat="50.666443" lon="4.578040"><time>2026-05-03T04:20:23Z</time></trkpt>
<trkpt lat="50.666030" lon="4.577331"><time>2026-05-03T04:30:23Z</time></trkpt>
<trkpt lat="50.665887" lon="4.577189"><time>2026-05-03T04:40:23Z</time></trkpt>
<trkpt lat="50.665807" lon="4.576482"><time>2026-05-03T04:50:23Z</time></trkpt>
<trkpt lat="50.665458" lon="4.575843"><time>2026-05-03T05:00:23Z</time></trkpt>
<trkpt lat="50.665197" lon="4.575616"><time>2026-05-03T05:10:23Z</time></trkpt>
<trkpt lat="50.664920" lon="4.574964"><time>2026-05-03T05:20:23Z</time></trkpt>
</trkseg>
</trk>
</gpx>